Salt River, Missouri
Current Conditions -  °F | °C
As of 10:15 AM on Thursday 27 Nov 2014 (Local Time) from KHAE Reporting Station
Broken Clouds Broken Clouds  
Wind Chill: 19°   Ceiling: 2000
Heat Index: 28°   Visibility: 10mi
Dew Point: 18°   Wind: 10mph
Humidity: 64%   Direction: 310°NW
Pressure: 30.5"   Gusts: NA
Location:  39.4063°N, 91.6511°W
Report Text: KHAE 271615Z AUTO 31009KT 10SM BKN020 M02/M08 A3050 RMK AO2
Loading
Personal Weather Stations






























Interactive Weather Map New forecast layout! Learn more

10-Day Weather Forecast

Advertisements
Track Severe Weather on mobile